sensor_id;sensor_type;location;lat;lon;timestamp;P1;durP1;ratioP1;P2;durP2;ratioP2
57663;SDS011;43493;53.098;6.064;2022-10-10T00:02:15;9.43;;;3.30;;
57663;SDS011;43493;53.098;6.064;2022-10-10T00:04:41;8.73;;;3.50;;
57663;SDS011;43493;53.098;6.064;2022-10-10T00:07:07;9.20;;;3.90;;
57663;SDS011;43493;53.098;6.064;2022-10-10T00:09:32;6.70;;;3.53;;
57663;SDS011;43493;53.098;6.064;2022-10-10T00:11:58;9.20;;;3.77;;
57663;SDS011;43493;53.098;6.064;2022-10-10T00:14:24;6.80;;;3.43;;
57663;SDS011;43493;53.098;6.064;2022-10-10T00:16:50;7.20;;;3.40;;
57663;SDS011;43493;53.098;6.064;2022-10-10T00:19:15;7.90;;;3.30;;
57663;SDS011;43493;53.098;6.064;2022-10-10T00:21:41;8.80;;;4.17;;
57663;SDS011;43493;53.098;6.064;2022-10-10T00:24:07;10.33;;;4.13;;
57663;SDS011;43493;53.098;6.064;2022-10-10T00:26:32;8.27;;;3.60;;
57663;SDS011;43493;53.098;6.064;2022-10-10T00:28:58;8.53;;;4.13;;
57663;SDS011;43493;53.098;6.064;2022-10-10T00:31:24;9.33;;;3.43;;
57663;SDS011;43493;53.098;6.064;2022-10-10T00:33:50;7.70;;;3.77;;
57663;SDS011;43493;53.098;6.064;2022-10-10T00:36:15;9.37;;;3.50;;
57663;SDS011;43493;53.098;6.064;2022-10-10T00:38:44;6.67;;;4.07;;
57663;SDS011;43493;53.098;6.064;2022-10-10T00:41:10;8.37;;;3.60;;
57663;SDS011;43493;53.098;6.064;2022-10-10T00:43:36;7.43;;;3.67;;
57663;SDS011;43493;53.098;6.064;2022-10-10T00:46:02;6.73;;;3.53;;
57663;SDS011;43493;53.098;6.064;2022-10-10T00:51:03;9.23;;;4.13;;
57663;SDS011;43493;53.098;6.064;2022-10-10T00:53:42;9.67;;;4.63;;
57663;SDS011;43493;53.098;6.064;2022-10-10T00:56:12;7.23;;;3.97;;
57663;SDS011;43493;53.098;6.064;2022-10-10T00:58:40;7.87;;;3.90;;
57663;SDS011;43493;53.098;6.064;2022-10-10T01:01:10;7.07;;;4.10;;
57663;SDS011;43493;53.098;6.064;2022-10-10T01:03:36;7.73;;;3.93;;
57663;SDS011;43493;53.098;6.064;2022-10-10T01:06:02;7.17;;;4.00;;
57663;SDS011;43493;53.098;6.064;2022-10-10T01:08:28;8.77;;;4.33;;
57663;SDS011;43493;53.098;6.064;2022-10-10T01:11:00;8.57;;;4.20;;
57663;SDS011;43493;53.098;6.064;2022-10-10T01:13:37;8.20;;;3.90;;
57663;SDS011;43493;53.098;6.064;2022-10-10T01:16:45;8.47;;;3.90;;
57663;SDS011;43493;53.098;6.064;2022-10-10T01:21:47;9.93;;;4.30;;
57663;SDS011;43493;53.098;6.064;2022-10-10T01:27:06;9.77;;;4.50;;
57663;SDS011;43493;53.098;6.064;2022-10-10T01:29:44;7.87;;;4.13;;
57663;SDS011;43493;53.098;6.064;2022-10-10T01:32:33;9.68;;;4.00;;
57663;SDS011;43493;53.098;6.064;2022-10-10T01:42:57;13.50;;;5.83;;
57663;SDS011;43493;53.098;6.064;2022-10-10T01:45:26;8.73;;;4.43;;
57663;SDS011;43493;53.098;6.064;2022-10-10T01:47:53;8.97;;;5.00;;
57663;SDS011;43493;53.098;6.064;2022-10-10T01:50:22;9.27;;;4.57;;
57663;SDS011;43493;53.098;6.064;2022-10-10T01:55:19;11.70;;;4.80;;
57663;SDS011;43493;53.098;6.064;2022-10-10T02:00:43;9.70;;;4.70;;
57663;SDS011;43493;53.098;6.064;2022-10-10T02:03:26;9.27;;;4.47;;
57663;SDS011;43493;53.098;6.064;2022-10-10T02:06:02;7.73;;;4.73;;
57663;SDS011;43493;53.098;6.064;2022-10-10T02:08:34;12.10;;;4.73;;
57663;SDS011;43493;53.098;6.064;2022-10-10T02:11:07;11.30;;;5.53;;
57663;SDS011;43493;53.098;6.064;2022-10-10T02:13:53;10.17;;;4.67;;
57663;SDS011;43493;53.098;6.064;2022-10-10T02:16:40;8.38;;;4.57;;
57663;SDS011;43493;53.098;6.064;2022-10-10T02:19:09;13.23;;;4.90;;
57663;SDS011;43493;53.098;6.064;2022-10-10T02:21:40;7.70;;;4.00;;
57663;SDS011;43493;53.098;6.064;2022-10-10T02:24:07;8.57;;;4.70;;
57663;SDS011;43493;53.098;6.064;2022-10-10T02:26:35;8.90;;;4.73;;
57663;SDS011;43493;53.098;6.064;2022-10-10T02:29:25;11.63;;;4.73;;
57663;SDS011;43493;53.098;6.064;2022-10-10T02:34:29;11.37;;;5.27;;
57663;SDS011;43493;53.098;6.064;2022-10-10T02:37:00;8.03;;;4.90;;
57663;SDS011;43493;53.098;6.064;2022-10-10T02:39:29;6.37;;;4.37;;
57663;SDS011;43493;53.098;6.064;2022-10-10T02:41:59;10.03;;;5.23;;
57663;SDS011;43493;53.098;6.064;2022-10-10T02:44:25;7.93;;;4.97;;
57663;SDS011;43493;53.098;6.064;2022-10-10T02:46:51;11.73;;;4.87;;
57663;SDS011;43493;53.098;6.064;2022-10-10T02:49:21;7.47;;;4.43;;
57663;SDS011;43493;53.098;6.064;2022-10-10T02:51:48;11.93;;;5.73;;
57663;SDS011;43493;53.098;6.064;2022-10-10T02:54:14;11.73;;;4.80;;
57663;SDS011;43493;53.098;6.064;2022-10-10T02:56:40;9.97;;;5.03;;
57663;SDS011;43493;53.098;6.064;2022-10-10T02:59:05;8.83;;;4.73;;
57663;SDS011;43493;53.098;6.064;2022-10-10T03:01:31;8.20;;;4.90;;
57663;SDS011;43493;53.098;6.064;2022-10-10T03:03:57;9.23;;;5.00;;
57663;SDS011;43493;53.098;6.064;2022-10-10T03:06:22;8.70;;;4.57;;
57663;SDS011;43493;53.098;6.064;2022-10-10T03:08:48;9.93;;;5.50;;
57663;SDS011;43493;53.098;6.064;2022-10-10T03:11:13;10.27;;;5.60;;
57663;SDS011;43493;53.098;6.064;2022-10-10T03:13:39;7.33;;;4.57;;
57663;SDS011;43493;53.098;6.064;2022-10-10T03:16:05;10.50;;;5.40;;
57663;SDS011;43493;53.098;6.064;2022-10-10T03:18:31;9.17;;;4.90;;
57663;SDS011;43493;53.098;6.064;2022-10-10T03:20:57;7.73;;;4.77;;
57663;SDS011;43493;53.098;6.064;2022-10-10T03:23:23;9.37;;;5.47;;
57663;SDS011;43493;53.098;6.064;2022-10-10T03:25:49;10.20;;;5.50;;
57663;SDS011;43493;53.098;6.064;2022-10-10T03:28:15;7.57;;;5.13;;
57663;SDS011;43493;53.098;6.064;2022-10-10T03:30:41;8.80;;;4.83;;
57663;SDS011;43493;53.098;6.064;2022-10-10T03:33:07;9.80;;;4.83;;
57663;SDS011;43493;53.098;6.064;2022-10-10T03:35:33;13.77;;;5.20;;
57663;SDS011;43493;53.098;6.064;2022-10-10T03:37:59;7.63;;;4.83;;
57663;SDS011;43493;53.098;6.064;2022-10-10T03:40:26;7.70;;;5.17;;
57663;SDS011;43493;53.098;6.064;2022-10-10T03:42:52;10.30;;;5.40;;
57663;SDS011;43493;53.098;6.064;2022-10-10T03:45:18;9.37;;;5.03;;
57663;SDS011;43493;53.098;6.064;2022-10-10T03:47:43;9.00;;;5.30;;
57663;SDS011;43493;53.098;6.064;2022-10-10T03:50:09;8.67;;;5.07;;
57663;SDS011;43493;53.098;6.064;2022-10-10T03:52:35;11.83;;;5.33;;
57663;SDS011;43493;53.098;6.064;2022-10-10T03:55:00;8.33;;;5.40;;
57663;SDS011;43493;53.098;6.064;2022-10-10T03:57:27;8.93;;;4.80;;
57663;SDS011;43493;53.098;6.064;2022-10-10T03:59:52;9.83;;;5.23;;
57663;SDS011;43493;53.098;6.064;2022-10-10T04:02:18;8.23;;;4.80;;
57663;SDS011;43493;53.098;6.064;2022-10-10T04:04:44;10.60;;;5.97;;
57663;SDS011;43493;53.098;6.064;2022-10-10T04:07:10;10.60;;;5.50;;
57663;SDS011;43493;53.098;6.064;2022-10-10T04:09:35;9.83;;;5.40;;
57663;SDS011;43493;53.098;6.064;2022-10-10T04:12:01;10.20;;;5.40;;
57663;SDS011;43493;53.098;6.064;2022-10-10T04:14:27;7.93;;;5.20;;
57663;SDS011;43493;53.098;6.064;2022-10-10T04:16:53;10.33;;;5.60;;
57663;SDS011;43493;53.098;6.064;2022-10-10T04:19:18;10.17;;;5.80;;
57663;SDS011;43493;53.098;6.064;2022-10-10T04:21:44;8.50;;;4.93;;
57663;SDS011;43493;53.098;6.064;2022-10-10T04:24:10;9.90;;;5.63;;
57663;SDS011;43493;53.098;6.064;2022-10-10T04:26:36;11.73;;;5.20;;
57663;SDS011;43493;53.098;6.064;2022-10-10T04:29:02;9.00;;;5.03;;
57663;SDS011;43493;53.098;6.064;2022-10-10T04:31:28;9.60;;;5.50;;
57663;SDS011;43493;53.098;6.064;2022-10-10T04:33:53;8.30;;;5.00;;
57663;SDS011;43493;53.098;6.064;2022-10-10T04:36:19;10.10;;;5.13;;
57663;SDS011;43493;53.098;6.064;2022-10-10T04:38:45;11.17;;;5.83;;
57663;SDS011;43493;53.098;6.064;2022-10-10T04:41:10;10.20;;;5.57;;
57663;SDS011;43493;53.098;6.064;2022-10-10T04:43:36;9.63;;;5.23;;
57663;SDS011;43493;53.098;6.064;2022-10-10T04:46:02;10.33;;;5.33;;
57663;SDS011;43493;53.098;6.064;2022-10-10T04:48:28;11.50;;;5.67;;
57663;SDS011;43493;53.098;6.064;2022-10-10T04:50:57;9.70;;;5.03;;
57663;SDS011;43493;53.098;6.064;2022-10-10T04:53:23;9.20;;;5.17;;
57663;SDS011;43493;53.098;6.064;2022-10-10T04:55:50;10.53;;;5.53;;
57663;SDS011;43493;53.098;6.064;2022-10-10T04:58:16;11.53;;;5.43;;
57663;SDS011;43493;53.098;6.064;2022-10-10T05:00:41;11.13;;;6.37;;
57663;SDS011;43493;53.098;6.064;2022-10-10T05:03:07;9.53;;;5.73;;
57663;SDS011;43493;53.098;6.064;2022-10-10T05:05:35;10.87;;;6.03;;
57663;SDS011;43493;53.098;6.064;2022-10-10T05:08:01;10.17;;;5.63;;
57663;SDS011;43493;53.098;6.064;2022-10-10T05:10:27;9.00;;;5.50;;
57663;SDS011;43493;53.098;6.064;2022-10-10T05:12:53;9.47;;;5.57;;
57663;SDS011;43493;53.098;6.064;2022-10-10T05:15:19;9.03;;;5.27;;
57663;SDS011;43493;53.098;6.064;2022-10-10T05:17:45;8.30;;;5.53;;
57663;SDS011;43493;53.098;6.064;2022-10-10T05:20:11;11.87;;;5.43;;
57663;SDS011;43493;53.098;6.064;2022-10-10T05:22:37;13.17;;;6.20;;
57663;SDS011;43493;53.098;6.064;2022-10-10T05:25:03;11.10;;;6.60;;
57663;SDS011;43493;53.098;6.064;2022-10-10T05:27:29;10.60;;;6.20;;
57663;SDS011;43493;53.098;6.064;2022-10-10T05:29:55;11.37;;;5.77;;
57663;SDS011;43493;53.098;6.064;2022-10-10T05:32:21;10.90;;;5.97;;
57663;SDS011;43493;53.098;6.064;2022-10-10T05:34:47;9.97;;;5.33;;
57663;SDS011;43493;53.098;6.064;2022-10-10T05:37:13;10.47;;;5.93;;
57663;SDS011;43493;53.098;6.064;2022-10-10T05:39:39;12.37;;;5.97;;
57663;SDS011;43493;53.098;6.064;2022-10-10T05:42:05;10.23;;;5.73;;
57663;SDS011;43493;53.098;6.064;2022-10-10T05:44:31;11.90;;;6.13;;
57663;SDS011;43493;53.098;6.064;2022-10-10T05:46:58;8.50;;;5.53;;
57663;SDS011;43493;53.098;6.064;2022-10-10T05:49:24;10.23;;;5.70;;
57663;SDS011;43493;53.098;6.064;2022-10-10T05:51:50;10.90;;;5.67;;
57663;SDS011;43493;53.098;6.064;2022-10-10T05:54:15;12.03;;;5.90;;
57663;SDS011;43493;53.098;6.064;2022-10-10T05:56:41;10.60;;;5.70;;
57663;SDS011;43493;53.098;6.064;2022-10-10T05:59:07;11.33;;;6.00;;
57663;SDS011;43493;53.098;6.064;2022-10-10T06:01:32;8.63;;;5.80;;
57663;SDS011;43493;53.098;6.064;2022-10-10T06:03:58;9.50;;;5.97;;
57663;SDS011;43493;53.098;6.064;2022-10-10T06:06:24;11.63;;;5.90;;
57663;SDS011;43493;53.098;6.064;2022-10-10T06:08:50;14.20;;;6.13;;
57663;SDS011;43493;53.098;6.064;2022-10-10T06:11:16;10.37;;;5.47;;
57663;SDS011;43493;53.098;6.064;2022-10-10T06:13:44;9.80;;;5.90;;
57663;SDS011;43493;53.098;6.064;2022-10-10T06:16:12;10.03;;;5.27;;
57663;SDS011;43493;53.098;6.064;2022-10-10T06:18:37;12.77;;;6.17;;
57663;SDS011;43493;53.098;6.064;2022-10-10T06:21:04;13.37;;;6.10;;
57663;SDS011;43493;53.098;6.064;2022-10-10T06:23:31;10.93;;;6.20;;
57663;SDS011;43493;53.098;6.064;2022-10-10T06:25:57;12.73;;;5.83;;
57663;SDS011;43493;53.098;6.064;2022-10-10T06:28:23;8.53;;;5.23;;
57663;SDS011;43493;53.098;6.064;2022-10-10T06:30:49;9.80;;;5.30;;
57663;SDS011;43493;53.098;6.064;2022-10-10T06:33:15;10.77;;;5.43;;
57663;SDS011;43493;53.098;6.064;2022-10-10T06:35:44;9.73;;;5.97;;
57663;SDS011;43493;53.098;6.064;2022-10-10T06:38:11;9.43;;;5.67;;
57663;SDS011;43493;53.098;6.064;2022-10-10T06:40:39;9.47;;;5.70;;
57663;SDS011;43493;53.098;6.064;2022-10-10T06:43:05;11.50;;;6.20;;
57663;SDS011;43493;53.098;6.064;2022-10-10T06:45:39;11.53;;;5.93;;
57663;SDS011;43493;53.098;6.064;2022-10-10T06:48:11;11.23;;;5.95;;
57663;SDS011;43493;53.098;6.064;2022-10-10T06:50:38;8.93;;;5.47;;
57663;SDS011;43493;53.098;6.064;2022-10-10T06:53:03;10.03;;;5.67;;
57663;SDS011;43493;53.098;6.064;2022-10-10T06:55:30;8.07;;;5.53;;
57663;SDS011;43493;53.098;6.064;2022-10-10T06:57:56;11.10;;;5.70;;
57663;SDS011;43493;53.098;6.064;2022-10-10T07:00:22;13.37;;;6.13;;
57663;SDS011;43493;53.098;6.064;2022-10-10T07:02:48;7.50;;;5.30;;
57663;SDS011;43493;53.098;6.064;2022-10-10T07:05:15;9.87;;;6.20;;
57663;SDS011;43493;53.098;6.064;2022-10-10T07:07:42;9.87;;;6.10;;
57663;SDS011;43493;53.098;6.064;2022-10-10T07:10:10;11.10;;;6.80;;
57663;SDS011;43493;53.098;6.064;2022-10-10T07:12:38;10.20;;;5.90;;
57663;SDS011;43493;53.098;6.064;2022-10-10T07:15:04;11.20;;;6.20;;
57663;SDS011;43493;53.098;6.064;2022-10-10T07:17:31;10.27;;;5.93;;
57663;SDS011;43493;53.098;6.064;2022-10-10T07:19:57;7.70;;;4.70;;
57663;SDS011;43493;53.098;6.064;2022-10-10T07:22:23;9.67;;;6.10;;
57663;SDS011;43493;53.098;6.064;2022-10-10T07:24:49;10.53;;;6.07;;
57663;SDS011;43493;53.098;6.064;2022-10-10T07:27:15;12.63;;;6.50;;
57663;SDS011;43493;53.098;6.064;2022-10-10T07:29:41;10.93;;;5.90;;
57663;SDS011;43493;53.098;6.064;2022-10-10T07:32:07;10.53;;;5.93;;
57663;SDS011;43493;53.098;6.064;2022-10-10T07:34:34;12.50;;;6.00;;
57663;SDS011;43493;53.098;6.064;2022-10-10T07:37:00;15.33;;;6.97;;
57663;SDS011;43493;53.098;6.064;2022-10-10T07:39:26;12.60;;;6.40;;
57663;SDS011;43493;53.098;6.064;2022-10-10T07:41:51;10.63;;;6.00;;
57663;SDS011;43493;53.098;6.064;2022-10-10T07:44:17;10.90;;;6.33;;
57663;SDS011;43493;53.098;6.064;2022-10-10T07:46:44;10.10;;;6.23;;
57663;SDS011;43493;53.098;6.064;2022-10-10T07:49:10;10.03;;;6.67;;
57663;SDS011;43493;53.098;6.064;2022-10-10T07:51:36;10.27;;;5.40;;
57663;SDS011;43493;53.098;6.064;2022-10-10T07:54:03;9.93;;;5.87;;
57663;SDS011;43493;53.098;6.064;2022-10-10T07:56:29;11.30;;;6.23;;
57663;SDS011;43493;53.098;6.064;2022-10-10T07:58:54;8.17;;;5.70;;
57663;SDS011;43493;53.098;6.064;2022-10-10T08:01:20;12.87;;;6.10;;
57663;SDS011;43493;53.098;6.064;2022-10-10T08:03:46;8.93;;;5.43;;
57663;SDS011;43493;53.098;6.064;2022-10-10T08:06:13;11.30;;;6.20;;
57663;SDS011;43493;53.098;6.064;2022-10-10T08:08:40;11.73;;;6.50;;
57663;SDS011;43493;53.098;6.064;2022-10-10T08:11:07;11.00;;;6.03;;
57663;SDS011;43493;53.098;6.064;2022-10-10T08:13:34;10.63;;;6.13;;
57663;SDS011;43493;53.098;6.064;2022-10-10T08:16:01;15.33;;;6.67;;
57663;SDS011;43493;53.098;6.064;2022-10-10T08:18:28;9.23;;;6.10;;
57663;SDS011;43493;53.098;6.064;2022-10-10T08:20:57;10.87;;;6.40;;
57663;SDS011;43493;53.098;6.064;2022-10-10T08:23:28;10.93;;;5.85;;
57663;SDS011;43493;53.098;6.064;2022-10-10T08:25:56;11.83;;;6.47;;
57663;SDS011;43493;53.098;6.064;2022-10-10T08:28:26;13.30;;;6.27;;
57663;SDS011;43493;53.098;6.064;2022-10-10T08:30:52;9.13;;;6.17;;
57663;SDS011;43493;53.098;6.064;2022-10-10T08:33:18;12.47;;;6.97;;
57663;SDS011;43493;53.098;6.064;2022-10-10T08:35:44;14.93;;;6.77;;
57663;SDS011;43493;53.098;6.064;2022-10-10T08:38:10;10.57;;;6.63;;
57663;SDS011;43493;53.098;6.064;2022-10-10T08:40:48;9.67;;;6.67;;
57663;SDS011;43493;53.098;6.064;2022-10-10T08:43:18;10.87;;;7.07;;
57663;SDS011;43493;53.098;6.064;2022-10-10T08:45:51;10.03;;;6.57;;
57663;SDS011;43493;53.098;6.064;2022-10-10T08:48:20;10.03;;;6.27;;
57663;SDS011;43493;53.098;6.064;2022-10-10T08:50:53;12.47;;;7.07;;
57663;SDS011;43493;53.098;6.064;2022-10-10T08:53:26;10.63;;;6.70;;
57663;SDS011;43493;53.098;6.064;2022-10-10T09:11:21;10.97;;;7.07;;
57663;SDS011;43493;53.098;6.064;2022-10-10T09:16:50;12.33;;;7.53;;
57663;SDS011;43493;53.098;6.064;2022-10-10T09:22:42;13.27;;;7.67;;
57663;SDS011;43493;53.098;6.064;2022-10-10T09:25:19;13.03;;;7.80;;
57663;SDS011;43493;53.098;6.064;2022-10-10T09:28:04;11.23;;;7.17;;
57663;SDS011;43493;53.098;6.064;2022-10-10T09:30:36;12.77;;;7.30;;
57663;SDS011;43493;53.098;6.064;2022-10-10T09:33:24;13.33;;;7.90;;
57663;SDS011;43493;53.098;6.064;2022-10-10T09:43:55;12.87;;;7.67;;
57663;SDS011;43493;53.098;6.064;2022-10-10T09:46:23;11.30;;;7.83;;
57663;SDS011;43493;53.098;6.064;2022-10-10T09:48:49;14.47;;;7.40;;
57663;SDS011;43493;53.098;6.064;2022-10-10T09:51:17;11.40;;;6.47;;
57663;SDS011;43493;53.098;6.064;2022-10-10T09:53:44;11.50;;;7.63;;
57663;SDS011;43493;53.098;6.064;2022-10-10T09:56:19;13.83;;;7.67;;
57663;SDS011;43493;53.098;6.064;2022-10-10T09:58:51;15.10;;;7.90;;
57663;SDS011;43493;53.098;6.064;2022-10-10T10:01:22;11.67;;;8.27;;
57663;SDS011;43493;53.098;6.064;2022-10-10T10:04:14;10.97;;;8.03;;
57663;SDS011;43493;53.098;6.064;2022-10-10T10:06:42;10.87;;;7.30;;
57663;SDS011;43493;53.098;6.064;2022-10-10T10:09:13;14.73;;;8.33;;
57663;SDS011;43493;53.098;6.064;2022-10-10T10:11:45;11.23;;;7.83;;
57663;SDS011;43493;53.098;6.064;2022-10-10T10:14:20;12.33;;;7.53;;
57663;SDS011;43493;53.098;6.064;2022-10-10T10:16:55;14.80;;;8.03;;
57663;SDS011;43493;53.098;6.064;2022-10-10T10:19:38;13.33;;;7.53;;
57663;SDS011;43493;53.098;6.064;2022-10-10T10:22:22;20.57;;;8.83;;
57663;SDS011;43493;53.098;6.064;2022-10-10T10:30:36;16.02;;;7.43;;
57663;SDS011;43493;53.098;6.064;2022-10-10T10:33:13;14.63;;;7.33;;
57663;SDS011;43493;53.098;6.064;2022-10-10T10:41:29;13.60;;;7.77;;
57663;SDS011;43493;53.098;6.064;2022-10-10T10:44:23;13.13;;;7.57;;
57663;SDS011;43493;53.098;6.064;2022-10-10T10:49:54;11.27;;;7.67;;
57663;SDS011;43493;53.098;6.064;2022-10-10T10:55:48;14.83;;;8.93;;
57663;SDS011;43493;53.098;6.064;2022-10-10T11:01:09;16.10;;;9.03;;
57663;SDS011;43493;53.098;6.064;2022-10-10T11:03:48;15.97;;;10.50;;
57663;SDS011;43493;53.098;6.064;2022-10-10T11:06:35;14.50;;;9.43;;
57663;SDS011;43493;53.098;6.064;2022-10-10T11:09:33;14.60;;;8.80;;
57663;SDS011;43493;53.098;6.064;2022-10-10T11:20:00;17.27;;;9.57;;
57663;SDS011;43493;53.098;6.064;2022-10-10T11:22:31;16.17;;;9.27;;
57663;SDS011;43493;53.098;6.064;2022-10-10T11:28:12;16.27;;;10.30;;
57663;SDS011;43493;53.098;6.064;2022-10-10T11:30:49;15.87;;;9.30;;
57663;SDS011;43493;53.098;6.064;2022-10-10T11:35:58;14.77;;;8.63;;
57663;SDS011;43493;53.098;6.064;2022-10-10T11:38:43;13.20;;;8.93;;
57663;SDS011;43493;53.098;6.064;2022-10-10T11:41:26;18.37;;;10.10;;
57663;SDS011;43493;53.098;6.064;2022-10-10T11:49:50;12.33;;;8.67;;
57663;SDS011;43493;53.098;6.064;2022-10-10T11:52:49;16.53;;;10.17;;
57663;SDS011;43493;53.098;6.064;2022-10-10T11:55:24;15.90;;;9.00;;
57663;SDS011;43493;53.098;6.064;2022-10-10T12:00:43;18.10;;;9.33;;
57663;SDS011;43493;53.098;6.064;2022-10-10T12:03:24;17.90;;;9.20;;
57663;SDS011;43493;53.098;6.064;2022-10-10T12:06:01;13.67;;;9.70;;
57663;SDS011;43493;53.098;6.064;2022-10-10T12:08:42;18.30;;;10.60;;
57663;SDS011;43493;53.098;6.064;2022-10-10T12:13:54;15.10;;;9.10;;
57663;SDS011;43493;53.098;6.064;2022-10-10T12:16:24;16.87;;;9.87;;
57663;SDS011;43493;53.098;6.064;2022-10-10T12:18:53;16.63;;;10.30;;
57663;SDS011;43493;53.098;6.064;2022-10-10T12:21:24;16.43;;;11.80;;
57663;SDS011;43493;53.098;6.064;2022-10-10T12:24:10;16.07;;;10.30;;
57663;SDS011;43493;53.098;6.064;2022-10-10T12:32:09;19.23;;;12.00;;
57663;SDS011;43493;53.098;6.064;2022-10-10T12:37:29;16.83;;;12.37;;
57663;SDS011;43493;53.098;6.064;2022-10-10T12:42:31;23.80;;;12.93;;
57663;SDS011;43493;53.098;6.064;2022-10-10T12:47:55;20.97;;;12.93;;
57663;SDS011;43493;53.098;6.064;2022-10-10T12:50:26;18.53;;;13.30;;
57663;SDS011;43493;53.098;6.064;2022-10-10T12:52:59;26.23;;;14.23;;
57663;SDS011;43493;53.098;6.064;2022-10-10T12:55:29;17.57;;;12.10;;
57663;SDS011;43493;53.098;6.064;2022-10-10T12:58:01;21.93;;;12.67;;
57663;SDS011;43493;53.098;6.064;2022-10-10T13:01:03;20.63;;;12.90;;
57663;SDS011;43493;53.098;6.064;2022-10-10T13:05:48;18.50;;;12.63;;
57663;SDS011;43493;53.098;6.064;2022-10-10T13:08:17;14.63;;;9.27;;
57663;SDS011;43493;53.098;6.064;2022-10-10T13:13:49;10.77;;;4.37;;
57663;SDS011;43493;53.098;6.064;2022-10-10T13:16:20;10.10;;;2.83;;
57663;SDS011;43493;53.098;6.064;2022-10-10T13:18:55;10.63;;;2.33;;
57663;SDS011;43493;53.098;6.064;2022-10-10T13:21:28;14.03;;;2.97;;
57663;SDS011;43493;53.098;6.064;2022-10-10T13:24:01;16.30;;;2.67;;
57663;SDS011;43493;53.098;6.064;2022-10-10T13:26:30;12.87;;;2.60;;
57663;SDS011;43493;53.098;6.064;2022-10-10T13:28:59;14.33;;;2.83;;
57663;SDS011;43493;53.098;6.064;2022-10-10T13:31:29;11.73;;;2.73;;
57663;SDS011;43493;53.098;6.064;2022-10-10T13:34:00;15.37;;;2.90;;
57663;SDS011;43493;53.098;6.064;2022-10-10T13:36:28;11.60;;;2.20;;
57663;SDS011;43493;53.098;6.064;2022-10-10T13:38:56;11.30;;;2.33;;
57663;SDS011;43493;53.098;6.064;2022-10-10T13:41:22;11.47;;;2.10;;
57663;SDS011;43493;53.098;6.064;2022-10-10T13:43:50;11.37;;;2.57;;
57663;SDS011;43493;53.098;6.064;2022-10-10T13:46:37;16.77;;;3.30;;
57663;SDS011;43493;53.098;6.064;2022-10-10T13:49:02;14.23;;;2.40;;
57663;SDS011;43493;53.098;6.064;2022-10-10T13:51:44;10.03;;;2.80;;
57663;SDS011;43493;53.098;6.064;2022-10-10T13:54:53;12.90;;;3.33;;
57663;SDS011;43493;53.098;6.064;2022-10-10T13:57:01;14.30;;;2.50;;
57663;SDS011;43493;53.098;6.064;2022-10-10T13:59:28;12.73;;;2.50;;
57663;SDS011;43493;53.098;6.064;2022-10-10T14:01:58;15.43;;;2.83;;
57663;SDS011;43493;53.098;6.064;2022-10-10T14:06:59;12.93;;;2.60;;
57663;SDS011;43493;53.098;6.064;2022-10-10T14:12:07;13.20;;;2.50;;
57663;SDS011;43493;53.098;6.064;2022-10-10T14:14:47;17.27;;;3.03;;
57663;SDS011;43493;53.098;6.064;2022-10-10T14:17:17;15.23;;;3.50;;
57663;SDS011;43493;53.098;6.064;2022-10-10T14:19:44;13.87;;;3.33;;
57663;SDS011;43493;53.098;6.064;2022-10-10T14:22:11;15.60;;;3.37;;
57663;SDS011;43493;53.098;6.064;2022-10-10T14:24:37;15.43;;;3.73;;
57663;SDS011;43493;53.098;6.064;2022-10-10T14:29:43;13.40;;;2.57;;
57663;SDS011;43493;53.098;6.064;2022-10-10T14:32:10;19.10;;;2.90;;
57663;SDS011;43493;53.098;6.064;2022-10-10T14:34:37;16.00;;;3.10;;
57663;SDS011;43493;53.098;6.064;2022-10-10T14:37:03;12.93;;;2.87;;
57663;SDS011;43493;53.098;6.064;2022-10-10T14:39:29;15.90;;;3.47;;
57663;SDS011;43493;53.098;6.064;2022-10-10T14:41:55;22.63;;;3.50;;
57663;SDS011;43493;53.098;6.064;2022-10-10T14:44:21;25.07;;;3.33;;
57663;SDS011;43493;53.098;6.064;2022-10-10T14:46:47;16.80;;;3.63;;
57663;SDS011;43493;53.098;6.064;2022-10-10T14:49:19;20.83;;;3.37;;
57663;SDS011;43493;53.098;6.064;2022-10-10T14:51:45;20.30;;;3.30;;
57663;SDS011;43493;53.098;6.064;2022-10-10T14:54:12;17.03;;;2.97;;
57663;SDS011;43493;53.098;6.064;2022-10-10T14:56:38;17.13;;;3.00;;
57663;SDS011;43493;53.098;6.064;2022-10-10T14:59:16;15.23;;;2.93;;
57663;SDS011;43493;53.098;6.064;2022-10-10T15:01:44;19.33;;;3.80;;
57663;SDS011;43493;53.098;6.064;2022-10-10T15:04:11;12.23;;;3.07;;
57663;SDS011;43493;53.098;6.064;2022-10-10T15:06:36;14.03;;;3.97;;
57663;SDS011;43493;53.098;6.064;2022-10-10T15:09:02;15.27;;;3.03;;
57663;SDS011;43493;53.098;6.064;2022-10-10T15:11:28;14.57;;;3.00;;
57663;SDS011;43493;53.098;6.064;2022-10-10T15:13:54;18.10;;;3.47;;
57663;SDS011;43493;53.098;6.064;2022-10-10T15:16:21;12.97;;;3.47;;
57663;SDS011;43493;53.098;6.064;2022-10-10T15:18:47;13.57;;;2.87;;
57663;SDS011;43493;53.098;6.064;2022-10-10T15:21:12;13.70;;;3.17;;
57663;SDS011;43493;53.098;6.064;2022-10-10T15:23:38;15.70;;;3.47;;
57663;SDS011;43493;53.098;6.064;2022-10-10T15:26:04;16.57;;;3.57;;
57663;SDS011;43493;53.098;6.064;2022-10-10T15:28:31;16.73;;;2.40;;
57663;SDS011;43493;53.098;6.064;2022-10-10T15:30:57;14.93;;;3.83;;
57663;SDS011;43493;53.098;6.064;2022-10-10T15:33:22;15.17;;;2.83;;
57663;SDS011;43493;53.098;6.064;2022-10-10T15:38:43;11.70;;;3.10;;
57663;SDS011;43493;53.098;6.064;2022-10-10T15:41:09;15.53;;;4.03;;
57663;SDS011;43493;53.098;6.064;2022-10-10T15:43:44;17.43;;;3.17;;
57663;SDS011;43493;53.098;6.064;2022-10-10T15:46:22;18.07;;;3.20;;
57663;SDS011;43493;53.098;6.064;2022-10-10T15:48:49;15.40;;;3.30;;
57663;SDS011;43493;53.098;6.064;2022-10-10T15:51:15;16.50;;;3.60;;
57663;SDS011;43493;53.098;6.064;2022-10-10T15:53:41;16.07;;;4.47;;
57663;SDS011;43493;53.098;6.064;2022-10-10T15:56:08;16.53;;;4.00;;
57663;SDS011;43493;53.098;6.064;2022-10-10T15:58:35;17.23;;;3.07;;
57663;SDS011;43493;53.098;6.064;2022-10-10T16:01:15;16.40;;;3.60;;
57663;SDS011;43493;53.098;6.064;2022-10-10T16:03:43;12.77;;;2.57;;
57663;SDS011;43493;53.098;6.064;2022-10-10T16:06:09;20.13;;;2.90;;
57663;SDS011;43493;53.098;6.064;2022-10-10T16:08:36;11.90;;;2.30;;
57663;SDS011;43493;53.098;6.064;2022-10-10T16:11:03;14.77;;;2.30;;
57663;SDS011;43493;53.098;6.064;2022-10-10T16:13:30;14.37;;;3.13;;
57663;SDS011;43493;53.098;6.064;2022-10-10T16:15:57;14.30;;;2.87;;
57663;SDS011;43493;53.098;6.064;2022-10-10T16:18:26;15.10;;;2.47;;
57663;SDS011;43493;53.098;6.064;2022-10-10T16:20:55;15.60;;;3.10;;
57663;SDS011;43493;53.098;6.064;2022-10-10T16:23:21;17.83;;;2.77;;
57663;SDS011;43493;53.098;6.064;2022-10-10T16:25:46;17.00;;;3.10;;
57663;SDS011;43493;53.098;6.064;2022-10-10T16:28:12;16.40;;;3.13;;
57663;SDS011;43493;53.098;6.064;2022-10-10T16:30:38;16.97;;;2.90;;
57663;SDS011;43493;53.098;6.064;2022-10-10T16:33:04;13.47;;;2.63;;
57663;SDS011;43493;53.098;6.064;2022-10-10T16:35:34;14.40;;;2.70;;
57663;SDS011;43493;53.098;6.064;2022-10-10T16:38:01;17.13;;;3.20;;
57663;SDS011;43493;53.098;6.064;2022-10-10T16:40:27;14.67;;;2.57;;
57663;SDS011;43493;53.098;6.064;2022-10-10T16:42:53;17.23;;;3.20;;
57663;SDS011;43493;53.098;6.064;2022-10-10T16:45:19;13.77;;;2.80;;
57663;SDS011;43493;53.098;6.064;2022-10-10T16:47:45;12.97;;;2.93;;
57663;SDS011;43493;53.098;6.064;2022-10-10T16:50:11;13.13;;;3.03;;
57663;SDS011;43493;53.098;6.064;2022-10-10T16:52:36;13.47;;;3.20;;
57663;SDS011;43493;53.098;6.064;2022-10-10T16:55:05;14.47;;;2.80;;
57663;SDS011;43493;53.098;6.064;2022-10-10T16:57:35;19.23;;;3.00;;
57663;SDS011;43493;53.098;6.064;2022-10-10T17:00:01;17.37;;;3.13;;